createdAt,value
2023-02-04T00:00:15.809Z,14.45
2023-02-04T00:03:02.989Z,15.57
2023-02-04T00:05:30.683Z,16.88
2023-02-04T00:07:57.921Z,17.50
2023-02-04T00:10:25.071Z,14.00
2023-02-04T00:12:51.989Z,16.10
2023-02-04T00:15:19.148Z,15.23
2023-02-04T00:17:46.018Z,17.83
2023-02-04T00:20:13.528Z,16.42
2023-02-04T00:22:40.518Z,17.38
2023-02-04T00:25:08.207Z,15.00
2023-02-04T00:27:35.108Z,17.50
2023-02-04T00:30:03.040Z,16.02
2023-02-04T00:32:30.100Z,13.48
2023-02-04T00:34:57.410Z,14.57
2023-02-04T00:37:24.364Z,13.98
2023-02-04T00:39:51.626Z,15.02
2023-02-04T00:42:18.838Z,14.65
2023-02-04T00:44:46.100Z,15.18
2023-02-04T00:47:13.053Z,13.63
2023-02-04T00:49:41.325Z,14.63
2023-02-04T00:52:08.200Z,14.05
2023-02-04T00:54:35.431Z,15.15
2023-02-04T00:57:02.456Z,16.10
2023-02-04T00:59:29.901Z,14.48
2023-02-04T01:01:57.198Z,22.88
2023-02-04T01:04:24.515Z,16.40
2023-02-04T01:06:51.797Z,17.08
2023-02-04T01:09:18.980Z,15.80
2023-02-04T01:11:46.127Z,18.35
2023-02-04T01:14:13.421Z,19.95
2023-02-04T01:16:40.389Z,16.98
2023-02-04T01:19:07.708Z,19.23
2023-02-04T01:21:34.713Z,15.00
2023-02-04T01:24:02.033Z,17.08
2023-02-04T01:26:28.996Z,14.63
2023-02-04T01:28:56.292Z,15.75
2023-02-04T01:31:25.374Z,12.95
2023-02-04T01:33:52.807Z,15.90
2023-02-04T01:36:21.858Z,16.50
2023-02-04T01:38:49.969Z,15.48
2023-02-04T01:41:18.701Z,19.35
2023-02-04T01:43:47.840Z,16.13
2023-02-04T01:46:15.436Z,16.65
2023-02-04T01:48:43.106Z,14.52
2023-02-04T01:51:12.720Z,18.75
2023-02-04T01:53:41.427Z,16.20
2023-02-04T01:56:20.151Z,21.67
2023-02-04T01:58:48.465Z,19.88
2023-02-04T02:01:34.820Z,20.42
2023-02-04T02:04:02.506Z,22.38
2023-02-04T02:06:30.030Z,19.52
2023-02-04T02:08:58.418Z,17.65
2023-02-04T02:11:26.917Z,17.65
2023-02-04T02:13:54.468Z,17.52
2023-02-04T02:16:22.031Z,20.30
2023-02-04T02:18:49.626Z,21.15
2023-02-04T02:21:21.830Z,18.35
2023-02-04T02:23:55.520Z,16.95
2023-02-04T02:26:23.750Z,19.73
2023-02-04T02:28:51.698Z,19.20
2023-02-04T02:31:21.629Z,19.45
2023-02-04T02:33:49.460Z,18.58
2023-02-04T02:36:16.704Z,15.15
2023-02-04T02:38:44.452Z,16.80
2023-02-04T02:41:11.696Z,16.95
2023-02-04T02:43:39.842Z,18.85
2023-02-04T02:46:07.196Z,15.63
2023-02-04T02:48:34.775Z,13.98
2023-02-04T02:51:01.900Z,17.00
2023-02-04T02:53:29.229Z,15.13
2023-02-04T02:55:56.668Z,18.35
2023-02-04T02:58:32.643Z,13.73
2023-02-04T03:01:02.976Z,16.67
2023-02-04T03:03:34.221Z,15.70
2023-02-04T03:06:09.775Z,13.77
2023-02-04T03:08:37.741Z,11.75
2023-02-04T03:11:05.262Z,11.43
2023-02-04T03:13:34.151Z,10.80
2023-02-04T03:16:01.169Z,12.20
2023-02-04T03:18:29.521Z,14.45
2023-02-04T03:20:57.024Z,10.90
2023-02-04T03:23:24.355Z,11.65
2023-02-04T03:25:52.064Z,13.25
2023-02-04T03:28:19.353Z,12.60
2023-02-04T03:30:53.776Z,12.15
2023-02-04T03:33:21.041Z,11.32
2023-02-04T03:35:47.928Z,12.13
2023-02-04T03:38:15.232Z,12.60
2023-02-04T03:40:42.182Z,9.70
2023-02-04T03:43:09.343Z,11.80
2023-02-04T03:45:44.954Z,10.85
2023-02-04T03:48:13.656Z,13.05
2023-02-04T03:50:40.581Z,12.40
2023-02-04T03:53:08.286Z,11.15
2023-02-04T03:55:53.404Z,11.57
2023-02-04T03:58:20.971Z,12.68
2023-02-04T04:00:48.144Z,11.27
2023-02-04T04:03:15.888Z,9.55
2023-02-04T04:05:42.862Z,14.40
2023-02-04T04:08:10.063Z,9.27
2023-02-04T04:10:37.190Z,11.65
2023-02-04T04:13:04.699Z,14.00
2023-02-04T04:15:32.036Z,10.63
2023-02-04T04:17:59.361Z,11.00
2023-02-04T04:20:28.164Z,9.73
2023-02-04T04:22:55.327Z,10.48
2023-02-04T04:25:22.210Z,11.52
2023-02-04T04:27:49.450Z,9.43
2023-02-04T04:30:16.623Z,11.88
2023-02-04T04:32:43.793Z,9.70
2023-02-04T04:35:10.725Z,8.55
2023-02-04T04:37:38.033Z,9.45
2023-02-04T04:40:05.264Z,9.85
2023-02-04T04:42:32.615Z,9.63
2023-02-04T04:44:59.696Z,10.57
2023-02-04T04:47:26.993Z,10.18
2023-02-04T04:49:53.876Z,10.35
2023-02-04T04:52:21.066Z,11.23
2023-02-04T04:54:48.186Z,12.50
2023-02-04T04:57:15.352Z,13.48
2023-02-04T04:59:42.252Z,12.27
2023-02-04T05:02:09.488Z,10.70
2023-02-04T05:04:36.343Z,12.30
2023-02-04T05:07:03.787Z,12.75
2023-02-04T05:09:31.035Z,12.07
2023-02-04T05:11:58.251Z,11.90
2023-02-04T05:14:25.100Z,11.43
2023-02-04T05:16:52.289Z,9.20
2023-02-04T05:19:19.218Z,15.32
2023-02-04T05:21:46.407Z,17.23
2023-02-04T05:24:13.360Z,13.05
2023-02-04T05:26:40.644Z,10.52
2023-02-04T05:29:08.943Z,15.40
2023-02-04T05:31:37.260Z,10.77
2023-02-04T05:34:04.274Z,12.55
2023-02-04T05:36:31.408Z,13.32
2023-02-04T05:38:59.306Z,10.35
2023-02-04T05:41:26.710Z,9.43
2023-02-04T05:43:53.653Z,10.13
2023-02-04T05:46:20.914Z,9.43
2023-02-04T05:48:47.976Z,13.05
2023-02-04T05:51:15.150Z,12.45
2023-02-04T05:53:42.082Z,14.07
2023-02-04T05:56:09.292Z,12.20
2023-02-04T05:58:36.140Z,11.50
2023-02-04T06:01:04.246Z,10.23
2023-02-04T06:03:32.753Z,7.57
2023-02-04T06:06:00.180Z,10.15
2023-02-04T06:08:27.093Z,12.48
2023-02-04T06:10:54.289Z,11.15
2023-02-04T06:13:21.176Z,8.23
2023-02-04T06:15:48.389Z,9.35
2023-02-04T06:18:15.392Z,10.40
2023-02-04T06:20:42.588Z,10.02
2023-02-04T06:23:09.542Z,9.00
2023-02-04T06:25:37.832Z,10.93
2023-02-04T06:28:05.179Z,8.85
2023-02-04T06:30:32.699Z,10.50
2023-02-04T06:33:00.071Z,12.25
2023-02-04T06:35:27.270Z,9.50
2023-02-04T06:37:54.160Z,10.90
2023-02-04T06:40:21.400Z,11.88
2023-02-04T06:42:48.334Z,6.43
2023-02-04T06:45:15.606Z,9.20
2023-02-04T06:47:42.566Z,10.80
2023-02-04T06:50:10.514Z,9.70
2023-02-04T06:52:37.607Z,9.63
2023-02-04T06:55:05.133Z,10.57
2023-02-04T06:57:31.995Z,9.20
2023-02-04T06:59:59.223Z,5.50
2023-02-04T07:02:26.226Z,9.50
2023-02-04T07:04:53.732Z,10.25
2023-02-04T07:07:20.616Z,7.65
2023-02-04T07:09:47.892Z,9.40
2023-02-04T07:12:16.344Z,8.70
2023-02-04T07:14:43.744Z,8.20
2023-02-04T07:17:10.759Z,11.13
2023-02-04T07:19:38.187Z,14.43
2023-02-04T07:22:05.502Z,9.52
2023-02-04T07:24:32.680Z,11.52
2023-02-04T07:27:18.370Z,21.38
2023-02-04T07:29:45.531Z,5.53
2023-02-04T07:32:12.500Z,11.20
2023-02-04T07:34:39.770Z,9.38
2023-02-04T07:37:06.680Z,7.95
2023-02-04T07:39:34.204Z,7.15
2023-02-04T07:42:01.390Z,8.90
2023-02-04T07:44:35.095Z,7.40
2023-02-04T07:47:02.075Z,8.45
2023-02-04T07:49:29.324Z,5.55
2023-02-04T07:51:57.908Z,6.28
2023-02-04T07:54:25.065Z,4.82
2023-02-04T07:56:51.942Z,5.22
2023-02-04T07:59:19.128Z,6.45
2023-02-04T08:01:47.917Z,7.55
2023-02-04T08:04:15.265Z,7.20
2023-02-04T08:06:42.179Z,6.32
2023-02-04T08:09:09.329Z,5.65
2023-02-04T08:11:36.287Z,10.73
2023-02-04T08:14:03.480Z,4.70
2023-02-04T08:16:30.612Z,3.95
2023-02-04T08:18:57.978Z,4.43
2023-02-04T08:21:24.867Z,4.00
2023-02-04T08:23:52.055Z,6.22
2023-02-04T08:26:19.058Z,4.97
2023-02-04T08:28:46.320Z,5.28
2023-02-04T08:31:13.717Z,4.78
2023-02-04T08:33:41.190Z,3.47
2023-02-04T08:36:08.903Z,4.22
2023-02-04T08:38:36.273Z,6.60
2023-02-04T08:41:03.395Z,4.47
2023-02-04T08:43:30.544Z,5.68
2023-02-04T08:45:57.504Z,4.18
2023-02-04T08:48:24.680Z,5.22
2023-02-04T08:50:51.529Z,7.28
2023-02-04T08:53:18.907Z,4.82
2023-02-04T08:55:45.862Z,3.60
2023-02-04T08:58:13.072Z,4.28
2023-02-04T09:00:40.092Z,5.40
2023-02-04T09:03:07.832Z,2.40
2023-02-04T09:05:34.676Z,2.78
2023-02-04T09:08:01.971Z,3.30
2023-02-04T09:10:28.834Z,4.10
2023-02-04T09:12:56.254Z,2.78
2023-02-04T09:15:26.954Z,5.18
2023-02-04T09:18:01.253Z,7.80
2023-02-04T09:20:29.549Z,2.67
2023-02-04T09:22:57.323Z,3.65
2023-02-04T09:25:24.450Z,6.00
2023-02-04T09:27:51.807Z,4.78
2023-02-04T09:30:18.917Z,5.60
2023-02-04T09:32:46.076Z,3.70
2023-02-04T09:35:12.940Z,1.95
2023-02-04T09:37:40.191Z,4.20
2023-02-04T09:40:07.421Z,2.72
2023-02-04T09:42:34.609Z,4.90
2023-02-04T09:45:03.329Z,4.22
2023-02-04T09:47:31.406Z,3.75
2023-02-04T09:49:58.496Z,4.82
2023-02-04T09:52:27.989Z,3.70
2023-02-04T09:54:54.919Z,2.70
2023-02-04T09:57:22.477Z,3.55
2023-02-04T09:59:50.313Z,3.50
2023-02-04T10:02:27.170Z,3.38
2023-02-04T10:04:57.854Z,4.03
2023-02-04T10:07:27.408Z,3.83
2023-02-04T10:09:54.981Z,4.45
2023-02-04T10:12:22.939Z,3.65
2023-02-04T10:14:50.053Z,3.45
2023-02-04T10:17:22.433Z,3.70
2023-02-04T10:19:50.391Z,5.43
2023-02-04T10:22:20.814Z,4.32
2023-02-04T10:24:48.020Z,4.80
2023-02-04T10:27:18.019Z,3.42
2023-02-04T10:29:58.818Z,4.85
2023-02-04T10:37:30.805Z,5.53
2023-02-04T10:39:57.971Z,2.70
2023-02-04T10:42:27.730Z,4.43
2023-02-04T10:44:55.367Z,6.25
2023-02-04T10:47:29.014Z,7.22
2023-02-04T10:50:03.176Z,7.25
2023-02-04T10:52:39.887Z,5.57
2023-02-04T10:55:14.251Z,3.80
2023-02-04T10:57:43.172Z,3.90
2023-02-04T11:00:21.800Z,5.35
2023-02-04T11:03:11.018Z,5.38
2023-02-04T11:05:38.522Z,5.57
2023-02-04T11:08:27.729Z,3.10
2023-02-04T11:11:28.530Z,6.68
2023-02-04T11:13:55.839Z,5.20
2023-02-04T11:16:28.015Z,3.80
2023-02-04T11:19:05.047Z,3.50
2023-02-04T11:21:34.955Z,4.13
2023-02-04T11:24:06.775Z,4.00
2023-02-04T11:29:04.695Z,4.63
2023-02-04T11:31:35.153Z,4.22
2023-02-04T11:34:15.302Z,4.00
2023-02-04T11:37:13.996Z,3.30
2023-02-04T11:39:43.438Z,6.55
2023-02-04T11:42:30.410Z,3.95
2023-02-04T11:45:15.153Z,3.05
2023-02-04T11:47:43.267Z,4.53
2023-02-04T11:50:34.488Z,8.48
2023-02-04T11:53:03.050Z,6.17
2023-02-04T11:55:35.763Z,8.93
2023-02-04T11:58:03.418Z,9.60
2023-02-04T12:00:33.033Z,4.65
2023-02-04T12:03:11.987Z,8.65
2023-02-04T12:05:41.077Z,6.55
2023-02-04T12:08:26.399Z,6.40
2023-02-04T12:11:12.701Z,10.15
2023-02-04T12:13:52.932Z,7.72
2023-02-04T12:16:20.912Z,6.38
2023-02-04T12:18:48.414Z,8.02
2023-02-04T12:21:16.427Z,5.72
2023-02-04T12:23:43.562Z,5.45
2023-02-04T12:26:11.794Z,6.53
2023-02-04T12:28:38.827Z,5.22
2023-02-04T12:31:06.145Z,5.38
2023-02-04T12:33:33.322Z,5.28
2023-02-04T12:36:00.569Z,6.60
2023-02-04T12:38:28.304Z,8.18
2023-02-04T12:40:55.541Z,8.43
2023-02-04T12:43:22.436Z,6.85
2023-02-04T12:45:50.021Z,6.60
2023-02-04T12:48:17.339Z,7.78
2023-02-04T12:50:45.485Z,4.85
2023-02-04T12:53:12.601Z,4.43
2023-02-04T12:55:39.973Z,6.03
2023-02-04T12:58:06.829Z,7.65
2023-02-04T13:00:34.058Z,5.32
2023-02-04T13:03:01.036Z,6.07
2023-02-04T13:05:29.297Z,4.70
2023-02-04T13:07:56.537Z,5.85
2023-02-04T13:10:24.134Z,4.97
2023-02-04T13:12:51.656Z,4.82
2023-02-04T13:15:19.157Z,7.82
2023-02-04T13:17:46.135Z,4.38
2023-02-04T13:20:13.791Z,6.43
2023-02-04T13:22:40.675Z,3.70
2023-02-04T13:25:08.014Z,4.80
2023-02-04T13:27:34.970Z,4.20
2023-02-04T13:30:03.153Z,3.65
2023-02-04T13:32:30.097Z,6.38
2023-02-04T13:34:57.298Z,5.70
2023-02-04T13:37:24.495Z,4.35
2023-02-04T13:39:51.717Z,4.05
2023-02-04T13:42:18.610Z,3.45
2023-02-04T13:44:45.749Z,4.03
2023-02-04T13:47:12.693Z,3.03
2023-02-04T13:49:39.872Z,4.32
2023-02-04T13:52:06.801Z,4.00
2023-02-04T13:54:35.876Z,3.97
2023-02-04T13:57:03.841Z,4.95
2023-02-04T13:59:31.319Z,4.60
2023-02-04T14:01:58.341Z,3.63
2023-02-04T14:04:27.171Z,4.75
2023-02-04T14:06:55.432Z,3.92
2023-02-04T14:09:23.299Z,3.65
2023-02-04T14:11:50.203Z,3.88
2023-02-04T14:14:17.499Z,3.50
2023-02-04T14:16:44.603Z,3.83
2023-02-04T14:19:11.805Z,4.45
2023-02-04T14:21:38.827Z,2.80
2023-02-04T14:24:06.436Z,4.30
2023-02-04T14:26:33.538Z,3.22
2023-02-04T14:29:01.431Z,2.58
2023-02-04T14:31:28.504Z,3.70
2023-02-04T14:33:56.322Z,3.15
2023-02-04T14:36:23.291Z,4.50
2023-02-04T14:38:50.589Z,3.55
2023-02-04T14:41:20.067Z,3.28
2023-02-04T14:43:47.719Z,4.20
2023-02-04T14:46:14.916Z,4.55
2023-02-04T14:48:42.188Z,4.28
2023-02-04T14:51:09.138Z,3.42
2023-02-04T14:53:36.349Z,3.47
2023-02-04T14:56:03.302Z,3.47
2023-02-04T14:58:30.633Z,5.15
2023-02-04T15:00:57.599Z,2.70
2023-02-04T15:03:24.817Z,4.15
2023-02-04T15:05:51.824Z,5.55
2023-02-04T15:08:19.183Z,3.92
2023-02-04T15:10:46.226Z,4.00
2023-02-04T15:13:13.686Z,5.68
2023-02-04T15:15:40.643Z,3.83
2023-02-04T15:18:07.935Z,4.75
2023-02-04T15:20:35.188Z,4.32
2023-02-04T15:23:02.632Z,6.30
2023-02-04T15:25:29.668Z,3.08
2023-02-04T15:27:56.943Z,4.63
2023-02-04T15:30:23.958Z,5.38
2023-02-04T15:32:51.207Z,6.63
2023-02-04T15:35:18.859Z,4.43
2023-02-04T15:37:46.457Z,5.00
2023-02-04T15:40:13.425Z,4.45
2023-02-04T15:42:40.953Z,4.75
2023-02-04T15:45:08.367Z,4.13
2023-02-04T15:47:35.597Z,10.02
2023-02-04T15:50:04.031Z,3.85
2023-02-04T15:52:31.485Z,5.97
2023-02-04T15:54:58.384Z,6.18
2023-02-04T15:57:25.582Z,6.47
2023-02-04T15:59:52.500Z,5.28
2023-02-04T16:02:19.715Z,4.75
2023-02-04T16:04:47.982Z,4.30
2023-02-04T16:07:15.277Z,5.78
2023-02-04T16:09:43.852Z,4.05
2023-02-04T16:12:11.085Z,4.50
2023-02-04T16:14:37.969Z,7.50
2023-02-04T16:17:07.012Z,6.25
2023-02-04T16:19:34.424Z,4.72
2023-02-04T16:22:01.713Z,6.30
2023-02-04T16:24:28.795Z,4.40
2023-02-04T16:26:55.960Z,6.75
2023-02-04T16:29:22.914Z,5.10
2023-02-04T16:31:50.334Z,7.38
2023-02-04T16:34:17.254Z,6.18
2023-02-04T16:36:44.412Z,5.80
2023-02-04T16:39:11.459Z,5.82
2023-02-04T16:41:39.077Z,5.10
2023-02-04T16:44:06.093Z,5.65
2023-02-04T16:46:33.956Z,6.35
2023-02-04T16:49:01.397Z,7.43
2023-02-04T16:51:29.224Z,7.15
2023-02-04T16:54:14.918Z,6.85
2023-02-04T16:56:42.571Z,5.38
2023-02-04T16:59:09.524Z,11.50
2023-02-04T17:01:36.753Z,7.55
2023-02-04T17:04:03.755Z,6.10
2023-02-04T17:06:32.622Z,7.32
2023-02-04T17:08:59.641Z,11.68
2023-02-04T17:11:29.644Z,7.32
2023-02-04T17:14:00.667Z,7.63
2023-02-04T17:16:29.344Z,12.52
2023-02-04T17:18:56.613Z,12.38
2023-02-04T17:21:26.303Z,7.95
2023-02-04T17:23:53.790Z,10.63
2023-02-04T17:26:23.385Z,8.65
2023-02-04T17:28:51.225Z,13.43
2023-02-04T17:31:18.443Z,10.40
2023-02-04T17:33:46.017Z,11.90
2023-02-04T17:36:15.269Z,9.50
2023-02-04T17:38:42.207Z,9.85
2023-02-04T17:41:09.527Z,11.15
2023-02-04T17:43:37.270Z,12.45
2023-02-04T17:46:04.821Z,9.05
2023-02-04T17:48:32.089Z,7.72
2023-02-04T17:50:59.376Z,7.85
2023-02-04T17:53:26.478Z,6.38
2023-02-04T17:55:53.620Z,10.07
2023-02-04T17:58:25.601Z,9.55
2023-02-04T18:00:55.466Z,8.02
2023-02-04T18:03:24.691Z,8.70
2023-02-04T18:05:54.323Z,8.55
2023-02-04T18:08:27.312Z,9.88
2023-02-04T18:10:55.966Z,8.32
2023-02-04T18:13:23.869Z,9.10
2023-02-04T18:16:03.043Z,8.02
2023-02-04T18:18:37.216Z,9.77
2023-02-04T18:21:19.275Z,10.60
2023-02-04T18:23:46.441Z,10.20
2023-02-04T18:26:17.918Z,7.70
2023-02-04T18:28:48.901Z,9.65
2023-02-04T18:31:36.629Z,9.48
2023-02-04T18:34:16.934Z,12.13
2023-02-04T18:36:44.216Z,14.43
2023-02-04T18:39:17.808Z,11.80
2023-02-04T18:41:49.156Z,12.07
2023-02-04T18:44:22.363Z,12.65
2023-02-04T18:46:49.607Z,15.77
2023-02-04T18:49:22.685Z,14.43
2023-02-04T18:51:51.270Z,14.68
2023-02-04T18:54:29.230Z,17.45
2023-02-04T18:57:28.795Z,15.20
2023-02-04T19:00:27.620Z,17.33
2023-02-04T19:03:00.690Z,14.75
2023-02-04T19:05:36.881Z,14.73
2023-02-04T19:08:04.044Z,14.65
2023-02-04T19:10:38.165Z,19.13
2023-02-04T19:13:19.524Z,16.63
2023-02-04T19:15:52.541Z,16.63
2023-02-04T19:18:27.688Z,15.38
2023-02-04T19:20:54.749Z,12.23
2023-02-04T19:23:23.965Z,15.82
2023-02-04T19:25:52.398Z,16.02
2023-02-04T19:28:29.497Z,15.75
2023-02-04T19:31:01.964Z,13.15
2023-02-04T19:33:40.081Z,14.93
2023-02-04T19:36:39.895Z,13.30
2023-02-04T19:39:29.656Z,15.45
2023-02-04T19:41:57.625Z,15.07
2023-02-04T19:44:42.513Z,13.70
2023-02-04T19:47:28.400Z,11.88
2023-02-04T19:50:02.857Z,14.13
2023-02-04T19:52:38.785Z,12.70
2023-02-04T19:55:18.107Z,13.60
2023-02-04T19:57:46.553Z,13.57
2023-02-04T20:00:35.521Z,11.55
2023-02-04T20:03:13.454Z,14.07
2023-02-04T20:05:41.570Z,13.43
2023-02-04T20:08:27.415Z,12.32
2023-02-04T20:10:54.767Z,15.68
2023-02-04T20:13:22.920Z,15.32
2023-02-04T20:15:55.762Z,12.93
2023-02-04T20:18:26.393Z,15.25
2023-02-04T20:20:54.893Z,12.15
2023-02-04T20:23:29.684Z,15.60
2023-02-04T20:25:57.042Z,15.90
2023-02-04T20:28:30.031Z,16.23
2023-02-04T20:31:00.346Z,17.42
2023-02-04T20:33:33.644Z,17.98
2023-02-04T20:36:25.349Z,16.73
2023-02-04T20:38:58.837Z,12.80
2023-02-04T20:41:26.243Z,15.57
2023-02-04T20:43:53.233Z,12.50
2023-02-04T20:46:24.438Z,15.25
2023-02-04T20:48:51.724Z,19.05
2023-02-04T20:51:25.108Z,19.45
2023-02-04T20:54:01.118Z,14.32
2023-02-04T20:56:31.743Z,15.40
2023-02-04T20:59:17.255Z,19.10
2023-02-04T21:01:50.261Z,17.15
2023-02-04T21:04:30.258Z,21.20
2023-02-04T21:07:06.643Z,14.70
2023-02-04T21:09:34.672Z,12.80
2023-02-04T21:12:02.620Z,17.95
2023-02-04T21:14:30.244Z,12.75
2023-02-04T21:16:57.575Z,16.38
2023-02-04T21:19:25.871Z,13.40
2023-02-04T21:21:53.249Z,17.10
2023-02-04T21:24:20.157Z,16.80
2023-02-04T21:26:47.500Z,18.23
2023-02-04T21:29:14.949Z,18.73
2023-02-04T21:31:42.173Z,15.80
2023-02-04T21:34:09.194Z,15.57
2023-02-04T21:36:36.632Z,15.40
2023-02-04T21:39:03.793Z,15.13
2023-02-04T21:41:31.091Z,16.73
2023-02-04T21:43:58.025Z,20.63
2023-02-04T21:46:25.417Z,20.55
2023-02-04T21:48:52.550Z,17.20
2023-02-04T21:51:19.772Z,15.32
2023-02-04T21:53:46.769Z,19.02
2023-02-04T21:56:14.572Z,18.65
2023-02-04T21:58:41.618Z,17.38
2023-02-04T22:01:10.477Z,20.23
2023-02-04T22:03:37.599Z,16.95
2023-02-04T22:06:05.199Z,17.90
2023-02-04T22:08:32.219Z,20.10
2023-02-04T22:11:00.477Z,15.30
2023-02-04T22:13:46.055Z,17.33
2023-02-04T22:16:13.370Z,28.55
2023-02-04T22:18:40.362Z,19.25
2023-02-04T22:21:07.520Z,19.42
2023-02-04T22:23:34.377Z,18.65
2023-02-04T22:26:01.741Z,14.90
2023-02-04T22:28:28.635Z,15.30
2023-02-04T22:30:55.874Z,15.45
2023-02-04T22:33:22.817Z,16.83
2023-02-04T22:35:49.990Z,16.38
2023-02-04T22:38:19.438Z,15.65
2023-02-04T22:40:48.529Z,14.07
2023-02-04T22:43:15.562Z,19.15
2023-02-04T22:45:42.787Z,19.15
2023-02-04T22:48:09.682Z,16.02
2023-02-04T22:50:36.944Z,14.90
2023-02-04T22:53:03.809Z,18.50
2023-02-04T22:55:31.264Z,17.13
2023-02-04T22:57:58.281Z,13.80
2023-02-04T23:00:25.656Z,13.00
2023-02-04T23:02:52.913Z,19.83
2023-02-04T23:05:20.494Z,14.43
2023-02-04T23:07:47.565Z,16.98
2023-02-04T23:10:15.393Z,13.18
2023-02-04T23:12:42.267Z,15.75
2023-02-04T23:15:11.989Z,14.25
2023-02-04T23:17:38.862Z,10.38
2023-02-04T23:20:06.588Z,16.70
2023-02-04T23:22:33.640Z,11.02
2023-02-04T23:25:00.903Z,13.45
2023-02-04T23:27:27.909Z,14.60
2023-02-04T23:29:55.056Z,14.75
2023-02-04T23:32:23.533Z,13.30
2023-02-04T23:34:50.727Z,15.68
2023-02-04T23:37:17.650Z,18.63
2023-02-04T23:39:44.893Z,14.88
2023-02-04T23:42:16.929Z,19.52
2023-02-04T23:44:44.069Z,10.82
2023-02-04T23:47:10.978Z,15.23
2023-02-04T23:49:38.238Z,15.75
2023-02-04T23:52:07.189Z,9.85
2023-02-04T23:54:35.271Z,10.02
2023-02-04T23:57:02.203Z,10.85
2023-02-04T23:59:29.920Z,7.78
